createdAt,value
2023-02-25T00:01:19.052Z,19.32
2023-02-25T00:03:45.872Z,19.11
2023-02-25T00:06:13.864Z,19.30
2023-02-25T00:08:43.595Z,19.25
2023-02-25T00:11:10.393Z,19.33
2023-02-25T00:13:39.772Z,19.39
2023-02-25T00:16:07.157Z,19.40
2023-02-25T00:18:34.663Z,19.35
2023-02-25T00:21:04.763Z,19.59
2023-02-25T00:23:32.180Z,19.57
2023-02-25T00:25:59.542Z,19.61
2023-02-25T00:28:26.892Z,19.38
2023-02-25T00:30:54.965Z,19.46
2023-02-25T00:33:21.576Z,19.51
2023-02-25T00:35:48.316Z,19.46
2023-02-25T00:38:16.265Z,19.40
2023-02-25T00:40:43.469Z,19.41
2023-02-25T00:43:10.024Z,19.42
2023-02-25T00:45:38.313Z,19.09
2023-02-25T00:48:06.364Z,19.25
2023-02-25T00:50:33.021Z,19.31
2023-02-25T00:52:59.615Z,19.37
2023-02-25T00:55:26.146Z,19.46
2023-02-25T00:57:52.646Z,19.48
2023-02-25T01:00:19.939Z,19.47
2023-02-25T01:02:46.513Z,19.47
2023-02-25T01:05:15.331Z,19.44
2023-02-25T01:07:42.161Z,19.46
2023-02-25T01:10:10.343Z,19.42
2023-02-25T01:12:37.393Z,19.44
2023-02-25T01:15:05.057Z,19.45
2023-02-25T01:17:31.643Z,19.43
2023-02-25T01:19:58.115Z,19.42
2023-02-25T01:22:25.942Z,19.42
2023-02-25T01:24:55.305Z,19.50
2023-02-25T01:27:21.920Z,19.06
2023-02-25T01:29:48.464Z,19.12
2023-02-25T01:32:15.803Z,19.18
2023-02-25T01:34:42.413Z,19.26
2023-02-25T01:37:09.650Z,19.31
2023-02-25T01:39:38.969Z,19.38
2023-02-25T01:42:12.747Z,19.42
2023-02-25T01:45:10.397Z,19.45
2023-02-25T01:47:39.496Z,19.44
2023-02-25T01:50:07.450Z,19.40
2023-02-25T01:52:34.257Z,19.46
2023-02-25T01:55:03.892Z,19.55
2023-02-25T01:57:30.427Z,19.52
2023-02-25T01:59:56.982Z,19.55
2023-02-25T02:02:26.040Z,19.54
2023-02-25T02:04:54.159Z,19.47
2023-02-25T02:07:22.781Z,19.44
2023-02-25T02:09:49.523Z,19.16
2023-02-25T02:12:17.378Z,19.07
2023-02-25T02:14:43.937Z,19.28
2023-02-25T02:17:21.159Z,19.48
2023-02-25T02:20:02.320Z,19.44
2023-02-25T02:22:36.685Z,19.42
2023-02-25T02:25:22.307Z,19.52
2023-02-25T02:28:07.154Z,19.41
2023-02-25T02:30:38.961Z,19.38
2023-02-25T02:33:18.508Z,19.46
2023-02-25T02:35:51.180Z,19.52
2023-02-25T02:38:26.622Z,19.49
2023-02-25T02:41:03.509Z,19.46
2023-02-25T02:43:39.440Z,19.45
2023-02-25T02:46:13.632Z,19.41
2023-02-25T02:48:47.092Z,19.40
2023-02-25T02:51:21.167Z,19.38
2023-02-25T02:53:53.298Z,19.11
2023-02-25T02:56:23.286Z,19.10
2023-02-25T02:58:53.848Z,19.34
2023-02-25T03:01:24.794Z,19.33
2023-02-25T03:03:58.036Z,19.52
2023-02-25T03:06:30.217Z,19.46
2023-02-25T03:09:02.932Z,19.57
2023-02-25T03:11:29.684Z,19.45
2023-02-25T03:13:56.234Z,19.51
2023-02-25T03:16:28.456Z,19.50
2023-02-25T03:19:01.932Z,19.53
2023-02-25T03:21:36.937Z,19.47
2023-02-25T03:24:08.380Z,19.47
2023-02-25T03:26:35.093Z,19.48
2023-02-25T03:29:01.836Z,19.51
2023-02-25T03:31:34.798Z,19.07
2023-02-25T03:34:07.972Z,19.14
2023-02-25T03:36:37.630Z,19.26
2023-02-25T03:39:09.257Z,19.39
2023-02-25T03:41:41.532Z,19.43
2023-02-25T03:44:13.498Z,19.43
2023-02-25T03:46:43.081Z,19.49
2023-02-25T03:49:16.058Z,19.46
2023-02-25T03:51:46.416Z,19.45
2023-02-25T03:54:13.738Z,19.43
2023-02-25T03:56:42.475Z,19.52
2023-02-25T03:59:09.000Z,19.45
2023-02-25T04:01:35.896Z,19.49
2023-02-25T04:04:02.519Z,19.45
2023-02-25T04:06:30.405Z,19.48
2023-02-25T04:08:56.899Z,19.64
2023-02-25T04:11:23.441Z,19.52
2023-02-25T04:13:50.225Z,19.10
2023-02-25T04:16:16.786Z,19.19
2023-02-25T04:18:43.320Z,19.28
2023-02-25T04:21:10.004Z,19.31
2023-02-25T04:23:37.815Z,19.40
2023-02-25T04:26:04.591Z,19.41
2023-02-25T04:28:31.091Z,19.39
2023-02-25T04:30:57.889Z,19.44
2023-02-25T04:33:24.569Z,19.57
2023-02-25T04:35:51.360Z,19.49
2023-02-25T04:38:17.882Z,19.51
2023-02-25T04:40:45.716Z,19.53
2023-02-25T04:43:12.233Z,19.60
2023-02-25T04:45:38.871Z,19.34
2023-02-25T04:48:05.765Z,19.07
2023-02-25T04:50:32.323Z,19.24
2023-02-25T04:52:59.858Z,19.34
2023-02-25T04:55:26.398Z,19.43
2023-02-25T04:57:54.301Z,19.50
2023-02-25T05:00:22.710Z,19.47
2023-02-25T05:02:49.940Z,19.44
2023-02-25T05:05:17.380Z,19.45
2023-02-25T05:07:44.011Z,19.50
2023-02-25T05:10:12.610Z,19.43
2023-02-25T05:12:39.129Z,19.46
2023-02-25T05:15:07.954Z,19.45
2023-02-25T05:17:34.779Z,19.46
2023-02-25T05:20:01.348Z,19.46
2023-02-25T05:22:28.066Z,19.40
2023-02-25T05:24:54.642Z,19.12
2023-02-25T05:27:21.187Z,19.19
2023-02-25T05:29:47.857Z,19.17
2023-02-25T05:32:15.790Z,19.33
2023-02-25T05:34:42.321Z,19.38
2023-02-25T05:37:08.864Z,19.43
2023-02-25T05:39:35.357Z,19.40
2023-02-25T05:42:01.930Z,19.45
2023-02-25T05:44:28.408Z,19.45
2023-02-25T05:46:54.945Z,19.49
2023-02-25T05:49:23.057Z,19.32
2023-02-25T05:51:49.706Z,19.34
2023-02-25T05:54:16.694Z,19.38
2023-02-25T05:56:43.184Z,19.44
2023-02-25T05:59:10.536Z,18.88
2023-02-25T06:01:37.193Z,19.02
2023-02-25T06:04:03.813Z,19.19
2023-02-25T06:06:31.709Z,19.24
2023-02-25T06:08:58.916Z,19.40
2023-02-25T06:11:27.459Z,19.39
2023-02-25T06:13:55.303Z,19.32
2023-02-25T06:16:22.902Z,19.40
2023-02-25T06:18:49.690Z,19.33
2023-02-25T06:21:16.310Z,19.38
2023-02-25T06:23:44.669Z,19.43
2023-02-25T06:26:13.500Z,19.43
2023-02-25T06:28:40.312Z,19.37
2023-02-25T06:31:08.536Z,19.44
2023-02-25T06:33:35.276Z,19.48
2023-02-25T06:36:01.976Z,19.33
2023-02-25T06:38:28.442Z,19.10
2023-02-25T06:40:56.241Z,19.16
2023-02-25T06:43:22.872Z,19.23
2023-02-25T06:45:49.514Z,19.30
2023-02-25T06:48:16.144Z,19.34
2023-02-25T06:50:42.762Z,19.35
2023-02-25T06:53:09.730Z,19.37
2023-02-25T06:55:38.488Z,19.36
2023-02-25T06:58:06.931Z,19.36
2023-02-25T07:00:33.436Z,19.34
2023-02-25T07:03:00.023Z,19.38
2023-02-25T07:05:26.611Z,19.41
2023-02-25T07:07:53.118Z,19.39
2023-02-25T07:10:19.710Z,19.41
2023-02-25T07:12:46.227Z,19.40
2023-02-25T07:15:14.085Z,19.47
2023-02-25T07:17:40.570Z,19.23
2023-02-25T07:20:08.205Z,19.06
2023-02-25T07:22:34.748Z,19.22
2023-02-25T07:25:01.408Z,19.29
2023-02-25T07:27:27.914Z,19.37
2023-02-25T07:29:54.426Z,19.40
2023-02-25T07:32:24.372Z,19.38
2023-02-25T07:34:51.023Z,19.35
2023-02-25T07:37:17.671Z,19.35
2023-02-25T07:39:45.694Z,19.48
2023-02-25T07:42:13.351Z,19.47
2023-02-25T07:44:39.910Z,19.47
2023-02-25T07:47:06.410Z,19.59
2023-02-25T07:49:34.213Z,19.51
2023-02-25T07:52:00.722Z,19.42
2023-02-25T07:54:27.247Z,18.98
2023-02-25T07:56:53.941Z,19.10
2023-02-25T07:59:20.532Z,19.23
2023-02-25T08:01:47.161Z,19.28
2023-02-25T08:04:13.764Z,19.42
2023-02-25T08:06:42.221Z,19.46
2023-02-25T08:09:10.804Z,19.44
2023-02-25T08:11:37.783Z,19.38
2023-02-25T08:14:04.279Z,19.54
2023-02-25T08:16:30.819Z,19.47
2023-02-25T08:18:57.350Z,19.48
2023-02-25T08:21:24.986Z,19.53
2023-02-25T08:23:54.493Z,19.50
2023-02-25T08:26:21.985Z,19.52
2023-02-25T08:28:49.808Z,19.50
2023-02-25T08:31:17.102Z,19.21
2023-02-25T08:33:45.461Z,19.08
2023-02-25T08:36:14.452Z,19.17
2023-02-25T08:38:40.937Z,19.29
2023-02-25T08:41:09.258Z,19.36
2023-02-25T08:43:36.920Z,19.35
2023-02-25T08:46:04.224Z,19.47
2023-02-25T08:48:30.923Z,19.41
2023-02-25T08:51:02.231Z,19.39
2023-02-25T08:53:28.910Z,19.42
2023-02-25T08:55:55.490Z,19.53
2023-02-25T08:58:23.337Z,19.52
2023-02-25T09:00:50.089Z,19.44
2023-02-25T09:03:16.751Z,19.49
2023-02-25T09:05:43.351Z,19.42
2023-02-25T09:08:10.027Z,19.23
2023-02-25T09:10:49.511Z,19.14
2023-02-25T09:13:17.209Z,19.22
2023-02-25T09:15:45.141Z,19.35
2023-02-25T09:18:11.761Z,19.36
2023-02-25T09:20:38.331Z,19.40
2023-02-25T09:23:05.043Z,19.41
2023-02-25T09:25:31.933Z,19.40
2023-02-25T09:27:58.492Z,19.44
2023-02-25T09:30:24.974Z,19.46
2023-02-25T09:32:53.151Z,19.45
2023-02-25T09:35:19.791Z,19.50
2023-02-25T09:37:46.285Z,19.53
2023-02-25T09:40:17.844Z,19.57
2023-02-25T09:42:58.892Z,19.61
2023-02-25T09:45:26.407Z,19.44
2023-02-25T09:48:00.574Z,19.21
2023-02-25T09:50:32.206Z,19.27
2023-02-25T09:53:05.650Z,19.29
2023-02-25T09:55:35.751Z,19.37
2023-02-25T09:58:08.245Z,19.41
2023-02-25T10:00:40.527Z,19.43
2023-02-25T10:03:16.691Z,19.46
2023-02-25T10:05:46.526Z,19.57
2023-02-25T10:08:21.266Z,19.59
2023-02-25T10:10:56.936Z,19.57
2023-02-25T10:13:35.432Z,19.47
2023-02-25T10:16:10.768Z,19.45
2023-02-25T10:18:57.332Z,19.55
2023-02-25T10:21:36.968Z,19.55
2023-02-25T10:24:18.202Z,19.63
2023-02-25T10:26:49.657Z,19.15
2023-02-25T10:29:24.887Z,19.13
2023-02-25T10:31:55.072Z,19.31
2023-02-25T10:34:25.488Z,19.35
2023-02-25T10:36:55.005Z,19.42
2023-02-25T10:39:21.817Z,19.41
2023-02-25T10:41:48.534Z,19.39
2023-02-25T10:44:15.160Z,19.45
2023-02-25T10:46:49.795Z,19.47
2023-02-25T10:49:18.544Z,19.52
2023-02-25T10:51:58.414Z,19.48
2023-02-25T10:54:24.977Z,19.67
2023-02-25T10:56:53.287Z,19.60
2023-02-25T10:59:28.466Z,19.45
2023-02-25T11:01:58.558Z,19.49
2023-02-25T11:04:32.004Z,19.48
2023-02-25T11:06:59.969Z,19.45
2023-02-25T11:09:30.977Z,19.26
2023-02-25T11:11:59.705Z,19.33
2023-02-25T11:14:27.416Z,19.47
2023-02-25T11:17:02.593Z,19.53
2023-02-25T11:19:32.358Z,19.57
2023-02-25T11:22:08.935Z,19.50
2023-02-25T11:24:38.409Z,19.63
2023-02-25T11:27:07.661Z,19.62
2023-02-25T11:29:37.591Z,19.59
2023-02-25T11:32:09.995Z,19.62
2023-02-25T11:34:46.720Z,19.55
2023-02-25T11:37:25.189Z,19.76
2023-02-25T11:39:53.655Z,19.64
2023-02-25T11:42:23.793Z,19.72
2023-02-25T11:44:58.059Z,19.69
2023-02-25T11:47:27.272Z,19.24
2023-02-25T11:50:07.745Z,19.35
2023-02-25T11:52:42.222Z,19.43
2023-02-25T11:55:20.354Z,19.52
2023-02-25T11:58:01.573Z,19.55
2023-02-25T12:00:32.113Z,19.70
2023-02-25T12:03:13.892Z,19.69
2023-02-25T12:05:52.416Z,19.57
2023-02-25T12:08:35.265Z,19.67
2023-02-25T12:11:31.442Z,19.60
2023-02-25T12:14:16.184Z,19.57
2023-02-25T12:17:11.683Z,19.66
2023-02-25T12:20:08.186Z,19.57
2023-02-25T12:23:01.278Z,19.50
2023-02-25T12:25:41.865Z,19.05
2023-02-25T12:28:26.139Z,19.27
2023-02-25T12:31:02.590Z,19.37
2023-02-25T12:33:52.744Z,19.43
2023-02-25T12:36:34.342Z,19.45
2023-02-25T12:39:18.460Z,19.47
2023-02-25T12:41:55.499Z,19.50
2023-02-25T12:44:52.010Z,19.47
2023-02-25T12:47:45.992Z,19.48
2023-02-25T12:50:33.791Z,19.56
2023-02-25T12:53:16.248Z,19.54
2023-02-25T12:56:05.147Z,19.56
2023-02-25T12:58:47.161Z,19.69
2023-02-25T13:01:32.384Z,19.71
2023-02-25T13:04:18.697Z,19.42
2023-02-25T13:07:03.095Z,19.20
2023-02-25T13:09:46.137Z,19.29
2023-02-25T13:12:32.288Z,19.35
2023-02-25T13:15:08.971Z,19.51
2023-02-25T13:17:49.032Z,19.47
2023-02-25T13:20:32.267Z,19.68
2023-02-25T13:23:13.918Z,19.49
2023-02-25T13:25:57.472Z,19.50
2023-02-25T13:28:41.120Z,19.56
2023-02-25T13:31:17.454Z,19.45
2023-02-25T13:33:52.208Z,19.46
2023-02-25T13:36:36.515Z,19.55
2023-02-25T13:39:12.869Z,19.40
2023-02-25T13:41:53.289Z,19.24
2023-02-25T13:44:40.390Z,19.33
2023-02-25T13:47:27.716Z,19.31
2023-02-25T13:50:15.007Z,19.38
2023-02-25T13:52:54.208Z,19.44
2023-02-25T13:55:36.800Z,19.59
2023-02-25T13:58:24.997Z,19.63
2023-02-25T14:01:12.635Z,19.66
2023-02-25T14:03:59.368Z,19.65
2023-02-25T14:06:43.103Z,19.59
2023-02-25T14:09:21.898Z,19.81
2023-02-25T14:12:11.521Z,19.59
2023-02-25T14:14:55.364Z,19.55
2023-02-25T14:17:24.825Z,19.51
2023-02-25T14:20:07.657Z,19.08
2023-02-25T14:22:42.825Z,19.21
2023-02-25T14:25:20.264Z,19.34
2023-02-25T14:27:56.870Z,19.38
2023-02-25T14:30:34.607Z,19.43
2023-02-25T14:33:20.764Z,19.43
2023-02-25T14:36:02.667Z,19.52
2023-02-25T14:38:43.661Z,19.44
2023-02-25T14:41:27.472Z,19.48
2023-02-25T14:43:59.815Z,19.44
2023-02-25T14:46:33.900Z,19.45
2023-02-25T14:49:06.701Z,19.50
2023-02-25T14:52:08.217Z,19.50
2023-02-25T14:54:58.678Z,19.37
2023-02-25T14:57:42.085Z,19.07
2023-02-25T15:00:27.483Z,19.23
2023-02-25T15:03:18.437Z,19.31
2023-02-25T15:06:03.177Z,19.43
2023-02-25T15:08:48.465Z,19.46
2023-02-25T15:11:37.326Z,19.46
2023-02-25T15:14:23.357Z,19.62
2023-02-25T15:17:08.573Z,19.50
2023-02-25T15:19:52.122Z,19.46
2023-02-25T15:22:23.676Z,19.39
2023-02-25T15:24:52.717Z,19.48
2023-02-25T15:27:41.179Z,19.62
2023-02-25T15:30:09.406Z,19.43
2023-02-25T15:32:53.094Z,19.44
2023-02-25T15:35:22.574Z,19.03
2023-02-25T15:38:03.633Z,19.07
2023-02-25T15:40:44.466Z,19.21
2023-02-25T15:43:35.862Z,19.38
2023-02-25T15:46:27.134Z,19.40
2023-02-25T15:49:05.496Z,19.35
2023-02-25T15:51:43.106Z,19.64
2023-02-25T15:54:10.232Z,19.41
2023-02-25T15:56:51.613Z,19.39
2023-02-25T15:59:37.956Z,19.35
2023-02-25T16:02:32.233Z,19.38
2023-02-25T16:05:00.068Z,19.48
2023-02-25T16:07:32.272Z,19.46
2023-02-25T16:10:02.553Z,19.40
2023-02-25T16:12:30.626Z,19.05
2023-02-25T16:14:58.992Z,19.20
2023-02-25T16:17:31.445Z,19.24
2023-02-25T16:20:10.073Z,19.20
2023-02-25T16:22:37.404Z,19.27
2023-02-25T16:25:04.968Z,19.29
2023-02-25T16:27:53.448Z,19.34
2023-02-25T16:30:25.544Z,19.34
2023-02-25T16:33:03.931Z,19.39
2023-02-25T16:35:37.011Z,19.42
2023-02-25T16:38:11.638Z,19.39
2023-02-25T16:40:40.777Z,19.33
2023-02-25T16:43:13.458Z,19.44
2023-02-25T16:45:43.731Z,19.44
2023-02-25T16:48:17.198Z,19.10
2023-02-25T16:50:47.037Z,19.10
2023-02-25T16:53:18.432Z,19.16
2023-02-25T16:55:45.397Z,19.25
2023-02-25T16:58:23.022Z,19.27
2023-02-25T17:00:51.644Z,19.21
2023-02-25T17:03:18.978Z,19.26
2023-02-25T17:05:59.920Z,19.27
2023-02-25T17:08:26.997Z,19.33
2023-02-25T17:10:56.600Z,19.38
2023-02-25T17:13:27.944Z,19.29
2023-02-25T17:15:54.912Z,19.37
2023-02-25T17:18:26.307Z,19.33
2023-02-25T17:21:01.217Z,19.29
2023-02-25T17:23:28.342Z,19.35
2023-02-25T17:25:56.988Z,18.94
2023-02-25T17:28:28.066Z,19.05
2023-02-25T17:31:07.552Z,19.17
2023-02-25T17:33:34.233Z,19.27
2023-02-25T17:36:07.393Z,19.18
2023-02-25T17:38:35.080Z,19.22
2023-02-25T17:41:02.149Z,19.25
2023-02-25T17:43:36.067Z,19.19
2023-02-25T17:46:03.960Z,19.41
2023-02-25T17:48:33.288Z,19.33
2023-02-25T17:51:03.102Z,19.33
2023-02-25T17:53:37.083Z,19.30
2023-02-25T17:56:14.546Z,19.40
2023-02-25T17:58:43.458Z,19.34
2023-02-25T18:01:20.833Z,19.39
2023-02-25T18:03:47.693Z,19.46
2023-02-25T18:06:29.581Z,18.96
2023-02-25T18:08:56.223Z,19.00
2023-02-25T18:11:25.954Z,19.11
2023-02-25T18:13:54.207Z,19.23
2023-02-25T18:16:32.669Z,19.25
2023-02-25T18:18:59.584Z,19.31
2023-02-25T18:21:26.874Z,19.27
2023-02-25T18:23:53.635Z,19.23
2023-02-25T18:26:22.954Z,19.23
2023-02-25T18:28:50.019Z,19.27
2023-02-25T18:31:18.048Z,19.26
2023-02-25T18:33:45.307Z,19.23
2023-02-25T18:36:19.399Z,19.37
2023-02-25T18:38:46.007Z,19.24
2023-02-25T18:41:12.564Z,19.26
2023-02-25T18:43:39.073Z,19.25
2023-02-25T18:46:05.599Z,19.32
2023-02-25T18:48:33.556Z,18.95
2023-02-25T18:51:00.041Z,18.95
2023-02-25T18:53:27.274Z,19.11
2023-02-25T18:55:55.893Z,19.16
2023-02-25T18:58:23.685Z,19.12
2023-02-25T19:00:53.198Z,19.17
2023-02-25T19:03:26.096Z,19.25
2023-02-25T19:05:53.910Z,19.21
2023-02-25T19:08:20.589Z,19.26
2023-02-25T19:10:48.081Z,19.28
2023-02-25T19:13:18.144Z,19.21
2023-02-25T19:15:44.721Z,19.18
2023-02-25T19:18:13.027Z,19.25
2023-02-25T19:20:40.075Z,19.27
2023-02-25T19:23:10.294Z,19.30
2023-02-25T19:25:37.105Z,19.04
2023-02-25T19:28:05.576Z,18.90
2023-02-25T19:30:34.777Z,19.03
2023-02-25T19:33:04.648Z,19.09
2023-02-25T19:35:34.345Z,19.22
2023-02-25T19:38:01.856Z,19.23
2023-02-25T19:40:29.824Z,19.25
2023-02-25T19:42:56.423Z,19.27
2023-02-25T19:45:24.501Z,19.15
2023-02-25T19:47:51.740Z,19.23
2023-02-25T19:50:20.842Z,19.25
2023-02-25T19:52:47.669Z,19.30
2023-02-25T19:55:14.646Z,19.20
2023-02-25T19:57:42.924Z,19.24
2023-02-25T20:00:12.236Z,19.24
2023-02-25T20:02:38.943Z,19.29
2023-02-25T20:05:06.075Z,19.23
2023-02-25T20:07:32.678Z,19.20
2023-02-25T20:09:59.345Z,19.03
2023-02-25T20:12:26.408Z,18.81
2023-02-25T20:14:54.563Z,19.01
2023-02-25T20:17:21.062Z,19.07
2023-02-25T20:19:47.531Z,19.04
2023-02-25T20:22:14.241Z,19.14
2023-02-25T20:24:40.922Z,19.11
2023-02-25T20:27:07.442Z,19.22
2023-02-25T20:29:34.069Z,19.21
2023-02-25T20:32:02.060Z,19.23
2023-02-25T20:34:28.955Z,19.21
2023-02-25T20:36:58.497Z,19.24
2023-02-25T20:39:39.587Z,19.14
2023-02-25T20:42:11.143Z,19.29
2023-02-25T20:44:38.396Z,19.23
2023-02-25T20:47:06.540Z,19.30
2023-02-25T20:49:33.859Z,19.25
2023-02-25T20:52:00.877Z,19.32
2023-02-25T20:54:27.443Z,19.27
2023-02-25T20:56:54.374Z,19.06
2023-02-25T20:59:20.918Z,18.78
2023-02-25T21:01:47.416Z,18.95
2023-02-25T21:04:15.342Z,19.07
2023-02-25T21:06:42.072Z,19.13
2023-02-25T21:09:08.558Z,19.06
2023-02-25T21:11:35.124Z,19.14
2023-02-25T21:14:01.654Z,19.13
2023-02-25T21:16:28.450Z,19.10
2023-02-25T21:18:55.101Z,19.11
2023-02-25T21:21:22.973Z,19.23
2023-02-25T21:23:49.513Z,19.12
2023-02-25T21:26:16.083Z,19.14
2023-02-25T21:28:42.692Z,19.21
2023-02-25T21:31:11.674Z,19.18
2023-02-25T21:33:39.383Z,19.19
2023-02-25T21:36:07.555Z,19.17
2023-02-25T21:38:36.574Z,19.13
2023-02-25T21:41:06.226Z,19.09
2023-02-25T21:43:32.947Z,19.19
2023-02-25T21:46:01.747Z,18.82
2023-02-25T21:48:29.702Z,18.83
2023-02-25T21:50:56.560Z,18.98
2023-02-25T21:53:23.444Z,19.01
2023-02-25T21:55:51.278Z,19.04
2023-02-25T21:58:17.802Z,19.05
2023-02-25T22:00:44.500Z,19.08
2023-02-25T22:03:11.033Z,19.18
2023-02-25T22:05:38.612Z,19.17
2023-02-25T22:08:05.932Z,19.19
2023-02-25T22:10:33.223Z,19.19
2023-02-25T22:13:01.155Z,19.18
2023-02-25T22:15:27.934Z,19.23
2023-02-25T22:17:54.436Z,19.16
2023-02-25T22:20:20.973Z,19.10
2023-02-25T22:22:47.768Z,19.31
2023-02-25T22:25:14.312Z,19.17
2023-02-25T22:27:40.776Z,19.14
2023-02-25T22:30:09.518Z,19.09
2023-02-25T22:32:36.421Z,18.65
2023-02-25T22:35:03.386Z,18.87
2023-02-25T22:37:32.047Z,18.99
2023-02-25T22:39:58.540Z,19.10
2023-02-25T22:42:25.050Z,19.10
2023-02-25T22:44:51.620Z,19.04
2023-02-25T22:47:19.535Z,19.04
2023-02-25T22:49:46.197Z,19.06
2023-02-25T22:52:12.719Z,19.04
2023-02-25T22:54:39.217Z,19.12
2023-02-25T22:57:05.730Z,19.23
2023-02-25T22:59:32.226Z,19.27
2023-02-25T23:01:58.811Z,19.22
2023-02-25T23:04:26.698Z,19.18
2023-02-25T23:06:53.208Z,19.15
2023-02-25T23:09:19.897Z,19.14
2023-02-25T23:11:46.495Z,19.17
2023-02-25T23:14:13.744Z,19.26
2023-02-25T23:16:42.418Z,19.22
2023-02-25T23:19:11.309Z,19.15
2023-02-25T23:21:39.167Z,18.81
2023-02-25T23:24:07.547Z,18.77
2023-02-25T23:26:37.652Z,18.89
2023-02-25T23:29:06.464Z,18.91
2023-02-25T23:31:35.219Z,18.95
2023-02-25T23:34:04.398Z,18.99
2023-02-25T23:36:31.112Z,19.11
2023-02-25T23:39:00.640Z,19.10
2023-02-25T23:41:28.910Z,19.12
2023-02-25T23:43:56.890Z,18.98
2023-02-25T23:46:25.761Z,19.03
2023-02-25T23:48:54.465Z,19.07
2023-02-25T23:51:21.388Z,19.12
2023-02-25T23:53:48.802Z,19.11
2023-02-25T23:56:16.704Z,19.23
2023-02-25T23:58:43.304Z,19.11
